Time;durP1;ratioP1;P1;durP2;ratioP2;P2;SDS_P1;SDS_P2;PMS_P1;PMS_P2;Temp;Humidity;BMP_temperature;BMP_pressure;BME280_temperature;BME280_humidity;BME280_pressure;Samples;Min_cycle;Max_cycle;Signal;HPM_P1;HPM_P2
2022/07/24 00:01:37;;;;;;;4.20;3.13;;;;;;;;;;4983846;28;20064;-66
2022/07/24 00:04:03;;;;;;;5.78;3.30;;;;;;;;;;4981091;28;20049;-69
2022/07/24 00:06:28;;;;;;;4.22;3.30;;;;;;;;;;4987292;28;20046;-67
2022/07/24 00:08:56;;;;;;;4.07;3.17;;;;;;;;;;4981248;28;20047;-68
2022/07/24 00:11:22;;;;;;;4.18;3.58;;;;;;;;;;4982274;28;20534;-66
2022/07/24 00:13:47;;;;;;;4.25;3.50;;;;;;;;;;4986226;28;20058;-67
2022/07/24 00:16:13;;;;;;;5.90;3.60;;;;;;;;;;4984664;28;20050;-68
2022/07/24 00:18:39;;;;;;;4.35;3.13;;;;;;;;;;4987798;28;20052;-68
2022/07/24 00:21:04;;;;;;;3.35;2.92;;;;;;;;;;4983973;28;20055;-67
2022/07/24 00:23:30;;;;;;;5.00;3.40;;;;;;;;;;4988084;28;20050;-68
2022/07/24 00:25:55;;;;;;;3.47;3.17;;;;;;;;;;4984161;28;20055;-68
2022/07/24 00:28:21;;;;;;;4.57;3.50;;;;;;;;;;4981989;28;20047;-68
2022/07/24 00:30:47;;;;;;;8.10;3.65;;;;;;;;;;4978606;28;20535;-69
2022/07/24 00:33:12;;;;;;;3.95;3.10;;;;;;;;;;4978675;28;20041;-68
2022/07/24 00:35:38;;;;;;;6.80;3.33;;;;;;;;;;4988538;28;20061;-68
2022/07/24 00:38:04;;;;;;;6.68;2.72;;;;;;;;;;4976903;28;20042;-68
2022/07/24 00:40:30;;;;;;;4.22;3.22;;;;;;;;;;4971998;28;20050;-68
2022/07/24 00:42:56;;;;;;;4.72;3.40;;;;;;;;;;4988781;28;20038;-68
2022/07/24 00:45:22;;;;;;;5.30;3.30;;;;;;;;;;4983695;28;20413;-68
2022/07/24 00:47:47;;;;;;;6.72;3.55;;;;;;;;;;4985607;28;20046;-68
2022/07/24 00:50:13;;;;;;;5.30;3.10;;;;;;;;;;4982671;28;20139;-68
2022/07/24 00:52:39;;;;;;;3.75;3.17;;;;;;;;;;4985557;28;20089;-68
2022/07/24 00:55:05;;;;;;;4.18;3.35;;;;;;;;;;4979769;28;20058;-68
2022/07/24 00:57:30;;;;;;;3.72;3.40;;;;;;;;;;4978518;28;20038;-68
2022/07/24 00:59:57;;;;;;;7.38;3.40;;;;;;;;;;4983278;28;20043;-68
2022/07/24 01:02:23;;;;;;;4.45;3.00;;;;;;;;;;4985157;28;20589;-61
2022/07/24 01:04:48;;;;;;;3.85;3.45;;;;;;;;;;4982776;28;20227;-62
2022/07/24 01:07:14;;;;;;;5.78;3.20;;;;;;;;;;4986614;28;20054;-62
2022/07/24 01:09:40;;;;;;;3.90;3.17;;;;;;;;;;4987827;28;20440;-62
2022/07/24 01:12:06;;;;;;;4.60;3.20;;;;;;;;;;4984043;28;20093;-62
2022/07/24 01:14:32;;;;;;;5.63;3.33;;;;;;;;;;4985550;28;20077;-66
2022/07/24 01:16:58;;;;;;;4.90;3.28;;;;;;;;;;4987502;28;20596;-63
2022/07/24 01:19:23;;;;;;;6.15;3.40;;;;;;;;;;4988879;28;20186;-64
2022/07/24 01:21:51;;;;;;;4.63;3.20;;;;;;;;;;4984784;28;20026;-62
2022/07/24 01:24:18;;;;;;;3.47;3.15;;;;;;;;;;4987599;28;20189;-62
2022/07/24 01:26:44;;;;;;;7.18;3.20;;;;;;;;;;4984532;28;20057;-60
2022/07/24 01:29:09;;;;;;;3.03;2.80;;;;;;;;;;4975406;28;20410;-61
2022/07/24 01:31:35;;;;;;;3.97;2.90;;;;;;;;;;4975362;28;20058;-60
2022/07/24 01:34:00;;;;;;;4.55;3.50;;;;;;;;;;4987468;28;20037;-61
2022/07/24 01:36:26;;;;;;;6.25;3.30;;;;;;;;;;4986850;28;20041;-62
2022/07/24 01:38:51;;;;;;;3.65;3.33;;;;;;;;;;4983249;28;20133;-61
2022/07/24 01:41:16;;;;;;;4.15;3.30;;;;;;;;;;4990059;28;20050;-60
2022/07/24 01:43:42;;;;;;;5.40;3.33;;;;;;;;;;4986807;28;20057;-61
2022/07/24 01:46:07;;;;;;;3.60;2.97;;;;;;;;;;4986185;28;20229;-61
2022/07/24 01:48:33;;;;;;;5.20;3.03;;;;;;;;;;4990228;28;20030;-61
2022/07/24 01:50:58;;;;;;;4.40;3.10;;;;;;;;;;4985403;28;20050;-62
2022/07/24 01:53:24;;;;;;;4.28;3.17;;;;;;;;;;4989057;28;20042;-61
2022/07/24 01:55:51;;;;;;;4.63;3.20;;;;;;;;;;4984413;28;20043;-62
2022/07/24 01:58:17;;;;;;;3.38;3.00;;;;;;;;;;4971981;28;20054;-62
2022/07/24 02:00:42;;;;;;;4.40;3.47;;;;;;;;;;4986702;28;20048;-61
2022/07/24 02:03:07;;;;;;;6.35;3.10;;;;;;;;;;4990833;28;20449;-61
2022/07/24 02:05:33;;;;;;;3.95;3.20;;;;;;;;;;4990531;28;20033;-61
2022/07/24 02:07:59;;;;;;;6.07;3.42;;;;;;;;;;4987775;28;20055;-61
2022/07/24 02:10:26;;;;;;;5.22;3.75;;;;;;;;;;4987207;28;20137;-61
2022/07/24 02:12:51;;;;;;;5.18;3.13;;;;;;;;;;4986149;28;20034;-61
2022/07/24 02:15:17;;;;;;;3.63;2.83;;;;;;;;;;4987748;28;20460;-62
2022/07/24 02:17:46;;;;;;;4.95;3.33;;;;;;;;;;4972146;28;20043;-61
2022/07/24 02:20:12;;;;;;;5.20;3.30;;;;;;;;;;4979660;28;20736;-61
2022/07/24 02:22:37;;;;;;;5.68;3.45;;;;;;;;;;4987539;28;20070;-62
2022/07/24 02:25:03;;;;;;;6.35;3.30;;;;;;;;;;4988828;28;20053;-61
2022/07/24 02:27:30;;;;;;;3.83;3.20;;;;;;;;;;4989142;28;20062;-61
2022/07/24 02:29:55;;;;;;;9.75;3.72;;;;;;;;;;4985744;28;20050;-61
2022/07/24 02:32:20;;;;;;;3.92;2.92;;;;;;;;;;4984354;28;20088;-61
2022/07/24 02:34:46;;;;;;;3.33;3.03;;;;;;;;;;4983762;28;20133;-61
2022/07/24 02:37:11;;;;;;;4.28;3.17;;;;;;;;;;4987984;28;20054;-61
2022/07/24 02:39:36;;;;;;;3.60;3.15;;;;;;;;;;4985850;28;20054;-61
2022/07/24 02:42:02;;;;;;;6.50;3.47;;;;;;;;;;4981275;28;20540;-61
2022/07/24 02:44:28;;;;;;;3.75;2.88;;;;;;;;;;4983885;28;20141;-61
2022/07/24 02:46:53;;;;;;;8.88;3.30;;;;;;;;;;4983063;28;20057;-61
2022/07/24 02:49:18;;;;;;;3.35;3.03;;;;;;;;;;4986479;28;20057;-61
2022/07/24 02:51:44;;;;;;;4.43;3.08;;;;;;;;;;4989616;28;20038;-63
2022/07/24 02:54:09;;;;;;;5.03;3.75;;;;;;;;;;4988044;28;20060;-61
2022/07/24 02:56:34;;;;;;;5.78;3.50;;;;;;;;;;4989864;28;20042;-61
2022/07/24 02:59:00;;;;;;;5.13;3.45;;;;;;;;;;4985903;28;20058;-61
2022/07/24 03:01:26;;;;;;;4.10;3.13;;;;;;;;;;4984297;28;20054;-61
2022/07/24 03:03:51;;;;;;;3.70;3.38;;;;;;;;;;4987848;28;20042;-61
2022/07/24 03:06:16;;;;;;;3.45;3.15;;;;;;;;;;4985579;28;20030;-62
2022/07/24 03:08:42;;;;;;;4.50;3.15;;;;;;;;;;4985963;28;20050;-61
2022/07/24 03:11:07;;;;;;;4.88;3.22;;;;;;;;;;4986787;28;20406;-61
2022/07/24 03:13:32;;;;;;;4.43;3.40;;;;;;;;;;4981825;28;20042;-61
2022/07/24 03:15:58;;;;;;;3.08;2.78;;;;;;;;;;4984275;28;20066;-62
2022/07/24 03:18:23;;;;;;;3.00;2.80;;;;;;;;;;4985044;28;20480;-62
2022/07/24 03:20:49;;;;;;;3.83;3.10;;;;;;;;;;4977629;28;20145;-61
2022/07/24 03:23:14;;;;;;;3.78;3.17;;;;;;;;;;4986260;28;20135;-61
2022/07/24 03:25:39;;;;;;;6.15;3.45;;;;;;;;;;4987872;28;20375;-61
2022/07/24 03:28:05;;;;;;;7.95;3.50;;;;;;;;;;4986618;28;20054;-61
2022/07/24 03:30:30;;;;;;;5.63;3.53;;;;;;;;;;4988380;28;20056;-61
2022/07/24 03:32:55;;;;;;;4.18;3.58;;;;;;;;;;4983680;28;20140;-61
2022/07/24 03:35:21;;;;;;;4.55;2.95;;;;;;;;;;4985299;28;20065;-62
2022/07/24 03:37:46;;;;;;;5.22;3.22;;;;;;;;;;4988375;28;20086;-61
2022/07/24 03:40:12;;;;;;;6.15;3.20;;;;;;;;;;4983576;28;20137;-61
2022/07/24 03:42:38;;;;;;;6.05;3.33;;;;;;;;;;4985430;28;20492;-64
2022/07/24 03:45:04;;;;;;;4.28;2.90;;;;;;;;;;4980783;28;20047;-64
2022/07/24 03:47:29;;;;;;;4.38;2.97;;;;;;;;;;4980786;28;20089;-61
2022/07/24 03:49:54;;;;;;;4.43;3.13;;;;;;;;;;4983610;28;20054;-61
2022/07/24 03:52:20;;;;;;;3.78;3.10;;;;;;;;;;4982727;28;20039;-61
2022/07/24 03:54:45;;;;;;;7.75;3.00;;;;;;;;;;4981308;28;20548;-61
2022/07/24 03:57:10;;;;;;;3.78;3.15;;;;;;;;;;4985370;28;20085;-61
2022/07/24 03:59:36;;;;;;;4.28;3.28;;;;;;;;;;4982810;28;20107;-61
2022/07/24 04:02:01;;;;;;;4.18;3.08;;;;;;;;;;4984225;28;20046;-61
2022/07/24 04:04:27;;;;;;;5.88;2.85;;;;;;;;;;4983577;28;20065;-60
2022/07/24 04:06:52;;;;;;;4.28;3.10;;;;;;;;;;4985501;28;20441;-60
2022/07/24 04:09:18;;;;;;;3.03;2.72;;;;;;;;;;4985762;28;20034;-61
2022/07/24 04:11:44;;;;;;;6.25;3.08;;;;;;;;;;4985648;28;20050;-61
2022/07/24 04:14:10;;;;;;;3.95;2.95;;;;;;;;;;4979133;28;20055;-61
2022/07/24 04:16:35;;;;;;;3.22;2.47;;;;;;;;;;4984902;28;20057;-60
2022/07/24 04:19:00;;;;;;;3.05;2.72;;;;;;;;;;4985318;28;20038;-62
2022/07/24 04:21:26;;;;;;;4.30;3.17;;;;;;;;;;4983092;28;20035;-61
2022/07/24 04:23:51;;;;;;;3.15;2.88;;;;;;;;;;4985865;28;20046;-61
2022/07/24 04:26:17;;;;;;;3.67;3.03;;;;;;;;;;4977485;28;20140;-61
2022/07/24 04:28:43;;;;;;;4.32;3.00;;;;;;;;;;4979958;28;20058;-61
2022/07/24 04:31:09;;;;;;;3.83;3.10;;;;;;;;;;4988378;28;20054;-61
2022/07/24 04:33:34;;;;;;;3.38;3.05;;;;;;;;;;4984224;28;20489;-61
2022/07/24 04:36:00;;;;;;;3.65;3.00;;;;;;;;;;4990318;28;20404;-61
2022/07/24 04:38:25;;;;;;;5.55;2.58;;;;;;;;;;4991757;28;20058;-61
2022/07/24 04:40:51;;;;;;;4.45;3.42;;;;;;;;;;4987588;28;20042;-61
2022/07/24 04:43:16;;;;;;;3.33;2.83;;;;;;;;;;4988751;28;20054;-61
2022/07/24 04:45:42;;;;;;;3.45;2.80;;;;;;;;;;4986838;28;20041;-61
2022/07/24 04:48:07;;;;;;;4.57;3.15;;;;;;;;;;4988085;28;20050;-61
2022/07/24 04:50:33;;;;;;;5.28;2.90;;;;;;;;;;4989000;28;20130;-61
2022/07/24 04:52:59;;;;;;;3.85;3.17;;;;;;;;;;4990631;28;20055;-62
2022/07/24 04:55:24;;;;;;;3.65;3.28;;;;;;;;;;4987116;28;20481;-61
2022/07/24 04:57:50;;;;;;;5.13;3.30;;;;;;;;;;4985622;28;20065;-61
2022/07/24 05:00:15;;;;;;;4.13;3.15;;;;;;;;;;4984520;28;20433;-61
2022/07/24 05:02:41;;;;;;;6.55;3.30;;;;;;;;;;4985402;28;20052;-61
2022/07/24 05:05:07;;;;;;;3.45;3.00;;;;;;;;;;4986782;28;20085;-61
2022/07/24 05:07:33;;;;;;;5.72;3.05;;;;;;;;;;4994523;28;20046;-61
2022/07/24 05:09:58;;;;;;;4.90;2.78;;;;;;;;;;4990145;28;20038;-61
2022/07/24 05:12:25;;;;;;;3.47;3.03;;;;;;;;;;4993452;28;20058;-61
2022/07/24 05:14:50;;;;;;;3.78;2.72;;;;;;;;;;4988787;28;20077;-61
2022/07/24 05:17:16;;;;;;;4.70;3.22;;;;;;;;;;4989279;28;20469;-61
2022/07/24 05:19:41;;;;;;;5.50;3.22;;;;;;;;;;4988771;28;20044;-60
2022/07/24 05:22:07;;;;;;;5.30;3.05;;;;;;;;;;4985522;28;20485;-61
2022/07/24 05:24:32;;;;;;;4.63;3.10;;;;;;;;;;4987689;28;20030;-61
2022/07/24 05:26:57;;;;;;;5.25;2.90;;;;;;;;;;4987538;28;20137;-61
2022/07/24 05:29:23;;;;;;;3.97;3.05;;;;;;;;;;4987158;28;20053;-60
2022/07/24 05:31:49;;;;;;;3.50;3.20;;;;;;;;;;4990352;28;20137;-61
2022/07/24 05:34:14;;;;;;;4.45;3.10;;;;;;;;;;4985943;28;20038;-61
2022/07/24 05:36:40;;;;;;;5.45;3.00;;;;;;;;;;4986433;28;20512;-61
2022/07/24 05:39:05;;;;;;;3.58;2.92;;;;;;;;;;4985940;28;20065;-61
2022/07/24 05:41:31;;;;;;;4.28;3.10;;;;;;;;;;4992713;28;20053;-60
2022/07/24 05:43:56;;;;;;;5.47;3.60;;;;;;;;;;4983953;28;20328;-60
2022/07/24 05:46:22;;;;;;;7.65;3.15;;;;;;;;;;4984088;28;20039;-61
2022/07/24 05:48:47;;;;;;;4.35;2.92;;;;;;;;;;4986148;28;20563;-61
2022/07/24 05:51:13;;;;;;;6.03;2.80;;;;;;;;;;5003547;28;20041;-62
2022/07/24 05:53:38;;;;;;;4.03;2.83;;;;;;;;;;4981522;28;20043;-62
2022/07/24 05:56:04;;;;;;;3.55;2.80;;;;;;;;;;4988388;28;20557;-58
2022/07/24 05:58:30;;;;;;;3.22;2.92;;;;;;;;;;4988933;28;20120;-57
2022/07/24 06:00:55;;;;;;;4.78;3.13;;;;;;;;;;4982203;28;20030;-58
2022/07/24 06:03:21;;;;;;;4.75;2.78;;;;;;;;;;4988118;28;20469;-58
2022/07/24 06:05:46;;;;;;;3.53;2.70;;;;;;;;;;4983777;28;20128;-58
2022/07/24 06:08:12;;;;;;;5.28;2.80;;;;;;;;;;4985575;28;20046;-60
2022/07/24 06:10:37;;;;;;;5.97;3.10;;;;;;;;;;4983048;28;20612;-58
2022/07/24 06:13:02;;;;;;;3.60;2.78;;;;;;;;;;4981117;28;20477;-59
2022/07/24 06:15:28;;;;;;;7.22;2.97;;;;;;;;;;4984452;28;20039;-58
2022/07/24 06:17:54;;;;;;;2.80;2.60;;;;;;;;;;4988626;28;20086;-59
2022/07/24 06:20:20;;;;;;;3.78;2.85;;;;;;;;;;4987714;28;20069;-61
2022/07/24 06:22:45;;;;;;;5.20;2.72;;;;;;;;;;4984763;28;20423;-60
2022/07/24 06:25:11;;;;;;;6.53;2.97;;;;;;;;;;4987936;28;20209;-59
2022/07/24 06:27:47;;;;;;;3.65;2.60;;;;;;;;;;4988009;28;20041;-58
2022/07/24 06:30:21;;;;;;;4.15;2.58;;;;;;;;;;4983764;28;20244;-59
2022/07/24 06:32:48;;;;;;;4.32;2.70;;;;;;;;;;4989003;28;20366;-59
2022/07/24 06:35:14;;;;;;;3.13;2.75;;;;;;;;;;4982853;28;20049;-59
2022/07/24 06:37:39;;;;;;;4.85;2.70;;;;;;;;;;4987292;28;20038;-59
2022/07/24 06:40:05;;;;;;;3.53;2.10;;;;;;;;;;4985017;28;20476;-59
2022/07/24 06:42:31;;;;;;;4.72;2.20;;;;;;;;;;4990315;28;20029;-60
2022/07/24 06:44:56;;;;;;;3.88;2.15;;;;;;;;;;4985619;28;20046;-59
2022/07/24 06:47:22;;;;;;;3.38;2.08;;;;;;;;;;4983365;28;20038;-59
2022/07/24 06:49:47;;;;;;;2.22;1.92;;;;;;;;;;4988283;28;20109;-60
2022/07/24 06:52:13;;;;;;;6.85;2.70;;;;;;;;;;4992769;28;20050;-59
2022/07/24 06:54:38;;;;;;;4.50;2.55;;;;;;;;;;4982937;28;20042;-59
2022/07/24 06:57:03;;;;;;;4.43;2.30;;;;;;;;;;4986439;28;20124;-59
2022/07/24 06:59:29;;;;;;;2.72;2.00;;;;;;;;;;4986494;28;20050;-60
2022/07/24 07:01:54;;;;;;;8.75;3.55;;;;;;;;;;4980088;28;20042;-60
2022/07/24 07:04:20;;;;;;;5.45;2.28;;;;;;;;;;4983198;28;20042;-59
2022/07/24 07:06:46;;;;;;;6.22;3.05;;;;;;;;;;4979828;28;20544;-59
2022/07/24 07:09:12;;;;;;;5.38;2.30;;;;;;;;;;4982172;28;20034;-58
2022/07/24 07:11:37;;;;;;;3.95;2.20;;;;;;;;;;4982723;28;20451;-59
2022/07/24 07:14:03;;;;;;;3.53;1.98;;;;;;;;;;4984470;28;20133;-59
2022/07/24 07:16:28;;;;;;;3.35;2.08;;;;;;;;;;4975986;28;20137;-59
2022/07/24 07:18:54;;;;;;;2.15;1.63;;;;;;;;;;4964768;28;20066;-59
2022/07/24 07:21:19;;;;;;;7.70;2.45;;;;;;;;;;4982325;28;20034;-59
2022/07/24 07:23:45;;;;;;;5.40;2.33;;;;;;;;;;4982157;28;21824;-59
2022/07/24 07:26:10;;;;;;;4.50;2.25;;;;;;;;;;4978464;28;20065;-59
2022/07/24 07:28:36;;;;;;;4.38;2.50;;;;;;;;;;4978307;28;20046;-60
2022/07/24 07:31:01;;;;;;;5.50;2.25;;;;;;;;;;4975804;28;20030;-60
2022/07/24 07:33:26;;;;;;;4.18;2.15;;;;;;;;;;4978193;28;20416;-60
2022/07/24 07:35:52;;;;;;;3.15;2.00;;;;;;;;;;4975195;28;20042;-60
2022/07/24 07:38:18;;;;;;;4.45;2.38;;;;;;;;;;4978912;28;20081;-60
2022/07/24 07:40:47;;;;;;;5.82;2.55;;;;;;;;;;4982280;28;20085;-60
2022/07/24 07:43:12;;;;;;;4.50;2.42;;;;;;;;;;4983288;28;21098;-59
2022/07/24 07:45:37;;;;;;;3.25;2.20;;;;;;;;;;4977795;28;20038;-59
2022/07/24 07:48:03;;;;;;;3.83;1.90;;;;;;;;;;4978341;28;20046;-59
2022/07/24 07:50:29;;;;;;;4.32;2.33;;;;;;;;;;4978753;28;20065;-59
2022/07/24 07:52:55;;;;;;;5.05;2.10;;;;;;;;;;4979347;28;20050;-60
2022/07/24 07:55:21;;;;;;;3.28;2.10;;;;;;;;;;4977956;28;20074;-59
2022/07/24 07:57:46;;;;;;;3.45;2.35;;;;;;;;;;4980709;28;20042;-60
2022/07/24 08:00:12;;;;;;;5.07;2.13;;;;;;;;;;4984640;28;20034;-60
2022/07/24 08:02:38;;;;;;;3.00;2.08;;;;;;;;;;4984959;28;20049;-59
2022/07/24 08:05:04;;;;;;;3.28;2.30;;;;;;;;;;4983144;28;20125;-59
2022/07/24 08:07:29;;;;;;;4.68;2.50;;;;;;;;;;4981278;28;20051;-63
2022/07/24 08:09:55;;;;;;;3.08;2.20;;;;;;;;;;4981842;28;20026;-61
2022/07/24 08:12:20;;;;;;;3.60;2.08;;;;;;;;;;4981743;28;20037;-62
2022/07/24 08:14:46;;;;;;;3.35;2.58;;;;;;;;;;4979104;28;20059;-60
2022/07/24 08:17:11;;;;;;;3.70;2.33;;;;;;;;;;4983413;28;20056;-57
2022/07/24 08:19:37;;;;;;;4.72;2.20;;;;;;;;;;4982589;28;20046;-59
2022/07/24 08:22:04;;;;;;;4.32;2.20;;;;;;;;;;4981428;28;20392;-60
2022/07/24 08:24:32;;;;;;;6.68;2.20;;;;;;;;;;4979932;28;20030;-60
2022/07/24 08:26:59;;;;;;;3.47;2.40;;;;;;;;;;4980477;28;20387;-59
2022/07/24 08:29:25;;;;;;;3.88;2.30;;;;;;;;;;4978260;28;20066;-60
2022/07/24 08:31:50;;;;;;;4.88;2.42;;;;;;;;;;4982668;28;20077;-60
2022/07/24 08:34:16;;;;;;;4.43;2.50;;;;;;;;;;4982180;28;20077;-60
2022/07/24 08:36:45;;;;;;;4.90;2.30;;;;;;;;;;4984135;28;20123;-60
2022/07/24 08:39:11;;;;;;;3.67;2.40;;;;;;;;;;4981234;28;20054;-60
2022/07/24 08:41:37;;;;;;;4.75;2.33;;;;;;;;;;4982553;28;20393;-60
2022/07/24 08:44:03;;;;;;;3.33;2.30;;;;;;;;;;4980836;28;20065;-60
2022/07/24 08:46:31;;;;;;;5.05;2.05;;;;;;;;;;4979968;28;20891;-59
2022/07/24 08:48:57;;;;;;;3.33;1.92;;;;;;;;;;4979711;28;20030;-59
2022/07/24 08:51:23;;;;;;;3.75;2.53;;;;;;;;;;4981965;28;20038;-59
2022/07/24 08:53:49;;;;;;;3.10;2.20;;;;;;;;;;4980389;28;20452;-59
2022/07/24 08:56:16;;;;;;;2.88;2.20;;;;;;;;;;4980034;28;20058;-59
2022/07/24 08:58:42;;;;;;;2.97;2.10;;;;;;;;;;4982808;28;20043;-59
2022/07/24 09:01:08;;;;;;;4.07;2.75;;;;;;;;;;4981448;28;20458;-59
2022/07/24 09:03:45;;;;;;;5.25;2.40;;;;;;;;;;4981717;28;20129;-59
2022/07/24 09:06:12;;;;;;;2.70;2.50;;;;;;;;;;4981693;28;20053;-59
2022/07/24 09:08:39;;;;;;;3.53;2.40;;;;;;;;;;4980331;28;20050;-59
2022/07/24 09:11:05;;;;;;;5.88;2.28;;;;;;;;;;4984574;28;21533;-59
2022/07/24 09:16:24;;;;;;;3.42;2.50;;;;;;;;;;4979742;28;20065;-60
2022/07/24 09:19:01;;;;;;;5.80;2.10;;;;;;;;;;4982462;28;20034;-60
2022/07/24 09:21:26;;;;;;;2.58;2.05;;;;;;;;;;4984516;28;20481;-60
2022/07/24 09:23:52;;;;;;;2.97;2.47;;;;;;;;;;4988685;28;20053;-60
2022/07/24 09:26:17;;;;;;;4.25;2.70;;;;;;;;;;4985213;28;20153;-60
2022/07/24 09:28:51;;;;;;;3.65;2.47;;;;;;;;;;4984985;28;20083;-59
2022/07/24 09:31:17;;;;;;;4.53;2.40;;;;;;;;;;4986944;28;20076;-59
2022/07/24 09:33:43;;;;;;;2.83;2.33;;;;;;;;;;4987855;28;20053;-59
2022/07/24 09:36:14;;;;;;;4.25;2.60;;;;;;;;;;4984228;28;20124;-60
2022/07/24 09:38:46;;;;;;;3.05;2.35;;;;;;;;;;4980880;28;20545;-59
2022/07/24 09:41:11;;;;;;;4.90;2.30;;;;;;;;;;4989485;28;20050;-59
2022/07/24 09:43:38;;;;;;;3.45;2.67;;;;;;;;;;4990483;28;20042;-59
2022/07/24 09:46:08;;;;;;;4.53;2.65;;;;;;;;;;4972292;28;20180;-59
2022/07/24 09:48:39;;;;;;;3.95;2.70;;;;;;;;;;4992034;28;20473;-60
2022/07/24 09:51:16;;;;;;;7.00;2.88;;;;;;;;;;4987264;28;20051;-60
2022/07/24 09:53:44;;;;;;;3.72;2.55;;;;;;;;;;4984242;28;20043;-59
2022/07/24 09:56:13;;;;;;;4.75;2.50;;;;;;;;;;4986569;28;20050;-59
2022/07/24 09:58:47;;;;;;;2.78;2.58;;;;;;;;;;4984041;28;20518;-59
2022/07/24 10:01:17;;;;;;;2.97;2.70;;;;;;;;;;4985786;28;20600;-59
2022/07/24 10:03:45;;;;;;;2.67;2.47;;;;;;;;;;4992085;28;20056;-59
2022/07/24 10:06:17;;;;;;;3.08;2.40;;;;;;;;;;4986935;28;20054;-59
2022/07/24 10:08:43;;;;;;;;;;;;;;;;;;4986440;28;20180;-59
2022/07/24 10:11:10;;;;;;;2.72;2.53;;;;;;;;;;4977219;28;19961;-59
2022/07/24 10:13:35;;;;;;;3.63;2.75;;;;;;;;;;4979474;28;20054;-59
2022/07/24 10:16:03;;;;;;;3.28;2.97;;;;;;;;;;4985218;28;20034;-59
2022/07/24 10:18:54;;;;;;;3.10;2.78;;;;;;;;;;4981958;28;20042;-59
2022/07/24 10:21:22;;;;;;;3.42;2.85;;;;;;;;;;4963181;28;20113;-60
2022/07/24 10:23:56;;;;;;;5.20;3.15;;;;;;;;;;4977508;28;20074;-59
2022/07/24 10:26:35;;;;;;;3.78;2.90;;;;;;;;;;4987853;28;20050;-59
2022/07/24 10:29:17;;;;;;;5.70;2.95;;;;;;;;;;4981192;28;20051;-60
2022/07/24 10:31:44;;;;;;;3.72;2.90;;;;;;;;;;4983750;28;20039;-61
2022/07/24 10:34:38;;;;;;;6.80;2.67;;;;;;;;;;4985696;28;20088;-60
2022/07/24 10:37:24;;;;;;;3.55;3.20;;;;;;;;;;4984300;28;20125;-61
2022/07/24 10:39:49;;;;;;;5.57;3.28;;;;;;;;;;4984067;28;20125;-61
2022/07/24 10:42:15;;;;;;;7.00;3.20;;;;;;;;;;4978263;28;20157;-61
2022/07/24 10:44:41;;;;;;;4.38;3.30;;;;;;;;;;4977507;28;20317;-61
2022/07/24 10:47:13;;;;;;;6.07;3.33;;;;;;;;;;4984125;28;20121;-60
2022/07/24 10:49:49;;;;;;;5.38;3.45;;;;;;;;;;4983731;28;20046;-61
2022/07/24 10:52:26;;;;;;;4.25;3.33;;;;;;;;;;4984518;28;20169;-61
2022/07/24 10:55:26;;;;;;;4.55;3.47;;;;;;;;;;4980961;28;20169;-60
2022/07/24 10:57:58;;;;;;;6.50;3.88;;;;;;;;;;4982337;28;20121;-60
2022/07/24 11:00:25;;;;;;;4.85;3.60;;;;;;;;;;4981834;28;20045;-60
2022/07/24 11:03:19;;;;;;;4.43;3.58;;;;;;;;;;4982781;28;20074;-61
2022/07/24 11:06:05;;;;;;;3.55;3.13;;;;;;;;;;4985377;28;20058;-61
2022/07/24 11:08:36;;;;;;;4.00;3.33;;;;;;;;;;4984980;28;20377;-60
2022/07/24 11:11:07;;;;;;;4.43;3.58;;;;;;;;;;4984650;28;20054;-59
2022/07/24 11:13:32;;;;;;;8.25;3.53;;;;;;;;;;4977961;28;20137;-59
2022/07/24 11:16:10;;;;;;;4.50;3.22;;;;;;;;;;4967434;28;20509;-59
2022/07/24 11:18:39;;;;;;;5.57;3.40;;;;;;;;;;4986266;28;20133;-60
2022/07/24 11:21:05;;;;;;;5.03;3.42;;;;;;;;;;4982482;28;20111;-59
2022/07/24 11:23:31;;;;;;;11.55;3.60;;;;;;;;;;4984652;28;20038;-59
2022/07/24 11:26:30;;;;;;;7.47;3.50;;;;;;;;;;4983155;28;20504;-61
2022/07/24 11:29:17;;;;;;;4.80;3.50;;;;;;;;;;4986897;28;20042;-61
2022/07/24 11:31:48;;;;;;;6.60;3.70;;;;;;;;;;4985236;28;20112;-59
2022/07/24 11:34:14;;;;;;;5.78;3.72;;;;;;;;;;4984226;28;20169;-61
2022/07/24 11:36:42;;;;;;;4.38;3.10;;;;;;;;;;4985662;28;20087;-61
2022/07/24 11:39:08;;;;;;;5.13;3.22;;;;;;;;;;4983614;28;20116;-61
2022/07/24 11:41:50;;;;;;;4.78;3.80;;;;;;;;;;4981841;28;20050;-60
2022/07/24 11:44:28;;;;;;;;;;;;;;;;;;4984202;28;20050;-58
2022/07/24 11:46:56;;;;;;;3.72;2.97;;;;;;;;;;4985144;28;20066;-60
2022/07/24 11:49:22;;;;;;;4.82;3.17;;;;;;;;;;4982773;28;20488;-60
2022/07/24 11:51:49;;;;;;;3.42;3.13;;;;;;;;;;4981430;28;20066;-58
2022/07/24 11:54:22;;;;;;;5.38;3.70;;;;;;;;;;4979165;28;20058;-61
2022/07/24 11:56:48;;;;;;;4.80;3.53;;;;;;;;;;4981668;28;20090;-60
2022/07/24 11:59:32;;;;;;;5.53;3.53;;;;;;;;;;4981118;28;20127;-61
2022/07/24 12:02:07;;;;;;;4.22;3.40;;;;;;;;;;4972762;28;20055;-63
2022/07/24 12:04:33;;;;;;;7.32;3.42;;;;;;;;;;4968748;28;20062;-60
2022/07/24 12:06:59;;;;;;;3.70;3.28;;;;;;;;;;4982466;28;20378;-60
2022/07/24 12:09:25;;;;;;;4.35;3.20;;;;;;;;;;4984241;28;20030;-60
2022/07/24 12:11:51;;;;;;;5.40;3.70;;;;;;;;;;4983441;28;20050;-60
2022/07/24 12:14:18;;;;;;;3.67;3.38;;;;;;;;;;4980931;28;20066;-60
2022/07/24 12:16:51;;;;;;;5.72;3.58;;;;;;;;;;4981776;28;20050;-60
2022/07/24 12:19:24;;;;;;;3.92;3.10;;;;;;;;;;4982283;28;20065;-59
2022/07/24 12:21:52;;;;;;;6.28;3.50;;;;;;;;;;4980204;28;20057;-58
2022/07/24 12:24:19;;;;;;;4.97;3.75;;;;;;;;;;4985518;28;20031;-59
2022/07/24 12:26:52;;;;;;;3.55;3.22;;;;;;;;;;4981420;28;20047;-61
2022/07/24 12:29:18;;;;;;;5.63;3.40;;;;;;;;;;4983361;28;20488;-61
2022/07/24 12:31:43;;;;;;;5.88;3.45;;;;;;;;;;4982771;28;20042;-61
2022/07/24 12:34:09;;;;;;;4.15;3.42;;;;;;;;;;4984871;28;20493;-61
2022/07/24 12:36:35;;;;;;;3.75;3.30;;;;;;;;;;4984113;28;20038;-61
2022/07/24 12:39:00;;;;;;;3.85;3.40;;;;;;;;;;4984203;28;20190;-61
2022/07/24 12:41:27;;;;;;;3.90;3.58;;;;;;;;;;4983905;28;20049;-61
2022/07/24 12:44:01;;;;;;;4.22;3.38;;;;;;;;;;4982724;28;20038;-60
2022/07/24 12:46:32;;;;;;;4.05;3.60;;;;;;;;;;4980070;28;20411;-61
2022/07/24 12:49:09;;;;;;;5.63;3.53;;;;;;;;;;4981394;28;20634;-60
2022/07/24 12:51:44;;;;;;;4.65;3.67;;;;;;;;;;4983002;28;20509;-61
2022/07/24 12:54:34;;;;;;;3.40;3.10;;;;;;;;;;4982735;28;20054;-60
2022/07/24 12:57:11;;;;;;;3.90;3.50;;;;;;;;;;4983005;28;20051;-60
2022/07/24 12:59:39;;;;;;;5.05;3.60;;;;;;;;;;4987108;28;20382;-60
2022/07/24 13:02:07;;;;;;;4.43;3.33;;;;;;;;;;4985724;28;20051;-60
2022/07/24 13:04:33;;;;;;;3.50;3.20;;;;;;;;;;4983412;28;20396;-60
2022/07/24 13:07:00;;;;;;;4.25;3.47;;;;;;;;;;4984587;28;20118;-60
2022/07/24 13:09:27;;;;;;;3.60;3.30;;;;;;;;;;4980193;28;20770;-60
2022/07/24 13:11:54;;;;;;;3.83;3.53;;;;;;;;;;4982261;28;20062;-61
2022/07/24 13:14:23;;;;;;;4.70;3.53;;;;;;;;;;4985142;28;20081;-60
2022/07/24 13:16:50;;;;;;;5.32;3.42;;;;;;;;;;4985841;28;20116;-60
2022/07/24 13:19:17;;;;;;;5.10;3.67;;;;;;;;;;4991212;28;20133;-61
2022/07/24 13:21:43;;;;;;;4.35;3.67;;;;;;;;;;4989118;28;20034;-60
2022/07/24 13:24:10;;;;;;;8.00;3.40;;;;;;;;;;4988162;28;20050;-60
2022/07/24 13:26:37;;;;;;;6.20;3.92;;;;;;;;;;4986020;28;20134;-59
2022/07/24 13:29:04;;;;;;;3.97;3.55;;;;;;;;;;4980906;28;20141;-60
2022/07/24 13:31:29;;;;;;;4.38;3.40;;;;;;;;;;4981371;28;20544;-60
2022/07/24 13:33:54;;;;;;;4.10;3.70;;;;;;;;;;4983128;28;20133;-60
2022/07/24 13:36:20;;;;;;;3.90;3.50;;;;;;;;;;4984059;28;20027;-60
2022/07/24 13:38:46;;;;;;;3.83;3.53;;;;;;;;;;4985982;28;20141;-60
2022/07/24 13:41:12;;;;;;;6.85;3.58;;;;;;;;;;4990723;28;20050;-60
2022/07/24 13:43:38;;;;;;;3.85;3.45;;;;;;;;;;4991356;28;20054;-60
2022/07/24 13:46:03;;;;;;;7.97;3.55;;;;;;;;;;4989301;28;20035;-60
2022/07/24 13:48:29;;;;;;;6.15;3.90;;;;;;;;;;4989825;28;20113;-59
2022/07/24 13:50:55;;;;;;;4.15;3.75;;;;;;;;;;4988277;28;20492;-59
2022/07/24 13:53:20;;;;;;;5.32;3.90;;;;;;;;;;4989510;28;20104;-59
2022/07/24 13:55:46;;;;;;;4.30;3.40;;;;;;;;;;4983040;28;20488;-59
2022/07/24 13:58:12;;;;;;;4.28;3.88;;;;;;;;;;4987460;28;20062;-59
2022/07/24 14:00:37;;;;;;;4.93;4.22;;;;;;;;;;4987886;28;20092;-59
2022/07/24 14:03:03;;;;;;;4.53;3.20;;;;;;;;;;4987117;28;20057;-59
2022/07/24 14:05:29;;;;;;;7.75;3.22;;;;;;;;;;4985357;28;20043;-64
2022/07/24 14:07:54;;;;;;;4.95;3.58;;;;;;;;;;4974797;28;20059;-61
2022/07/24 14:10:21;;;;;;;4.35;3.45;;;;;;;;;;4972011;28;20050;-59
2022/07/24 14:12:46;;;;;;;4.50;3.88;;;;;;;;;;4988729;28;20124;-60
2022/07/24 14:15:12;;;;;;;6.20;3.60;;;;;;;;;;4985552;28;20038;-60
2022/07/24 14:17:38;;;;;;;4.38;3.47;;;;;;;;;;4989880;28;20038;-59
2022/07/24 14:20:04;;;;;;;4.70;3.60;;;;;;;;;;4990490;28;20095;-59
2022/07/24 14:22:30;;;;;;;5.05;3.70;;;;;;;;;;4986623;28;20050;-59
2022/07/24 14:24:55;;;;;;;5.72;4.07;;;;;;;;;;4984920;28;20032;-59
2022/07/24 14:27:21;;;;;;;9.85;5.55;;;;;;;;;;4985326;28;20109;-59
2022/07/24 14:29:46;;;;;;;12.60;6.22;;;;;;;;;;4985141;28;20058;-59
2022/07/24 14:32:12;;;;;;;8.02;4.07;;;;;;;;;;4983245;28;20055;-59
2022/07/24 14:34:37;;;;;;;3.50;3.20;;;;;;;;;;4984575;28;20053;-59
2022/07/24 14:37:02;;;;;;;5.97;3.80;;;;;;;;;;4986308;28;20026;-58
2022/07/24 14:39:30;;;;;;;4.35;3.30;;;;;;;;;;4984275;28;20034;-59
2022/07/24 14:41:56;;;;;;;4.43;3.45;;;;;;;;;;4985698;28;21581;-57
2022/07/24 14:44:21;;;;;;;4.80;3.70;;;;;;;;;;4983754;28;20051;-58
2022/07/24 14:46:47;;;;;;;4.05;3.63;;;;;;;;;;4981637;28;20090;-58